sensor_id;sensor_type;location;lat;lon;timestamp;P1;durP1;ratioP1;P2;durP2;ratioP2
77012;SDS011;67260;53.130;17.982;2023-07-30T00:00:01;7.30;;;5.30;;
77012;SDS011;67260;53.130;17.982;2023-07-30T00:02:30;8.60;;;5.80;;
77012;SDS011;67260;53.130;17.982;2023-07-30T00:04:56;8.10;;;5.20;;
77012;SDS011;67260;53.130;17.982;2023-07-30T00:07:23;7.80;;;5.20;;
77012;SDS011;67260;53.130;17.982;2023-07-30T00:09:50;8.20;;;5.50;;
77012;SDS011;67260;53.130;17.982;2023-07-30T00:12:16;7.90;;;5.60;;
77012;SDS011;67260;53.130;17.982;2023-07-30T00:15:26;6.30;;;4.90;;
77012;SDS011;67260;53.130;17.982;2023-07-30T00:18:27;10.10;;;5.20;;
77012;SDS011;67260;53.130;17.982;2023-07-30T00:20:54;9.10;;;5.20;;
77012;SDS011;67260;53.130;17.982;2023-07-30T00:23:23;8.30;;;5.30;;
77012;SDS011;67260;53.130;17.982;2023-07-30T00:25:50;8.70;;;5.40;;
77012;SDS011;67260;53.130;17.982;2023-07-30T00:28:17;7.80;;;5.60;;
77012;SDS011;67260;53.130;17.982;2023-07-30T00:30:46;10.20;;;5.30;;
77012;SDS011;67260;53.130;17.982;2023-07-30T00:33:13;8.40;;;5.80;;
77012;SDS011;67260;53.130;17.982;2023-07-30T00:35:46;7.70;;;5.30;;
77012;SDS011;67260;53.130;17.982;2023-07-30T00:38:18;9.30;;;5.30;;
77012;SDS011;67260;53.130;17.982;2023-07-30T00:40:45;7.00;;;5.30;;
77012;SDS011;67260;53.130;17.982;2023-07-30T00:43:12;9.10;;;5.60;;
77012;SDS011;67260;53.130;17.982;2023-07-30T00:45:40;10.50;;;6.10;;
77012;SDS011;67260;53.130;17.982;2023-07-30T00:48:09;8.70;;;5.80;;
77012;SDS011;67260;53.130;17.982;2023-07-30T00:50:46;9.30;;;5.50;;
77012;SDS011;67260;53.130;17.982;2023-07-30T00:53:16;12.70;;;6.40;;
77012;SDS011;67260;53.130;17.982;2023-07-30T00:55:49;9.90;;;6.40;;
77012;SDS011;67260;53.130;17.982;2023-07-30T00:58:21;10.00;;;6.40;;
77012;SDS011;67260;53.130;17.982;2023-07-30T01:00:50;8.70;;;6.00;;
77012;SDS011;67260;53.130;17.982;2023-07-30T01:03:19;11.40;;;6.00;;
77012;SDS011;67260;53.130;17.982;2023-07-30T01:05:46;10.90;;;6.60;;
77012;SDS011;67260;53.130;17.982;2023-07-30T01:08:14;9.50;;;6.40;;
77012;SDS011;67260;53.130;17.982;2023-07-30T01:10:44;8.90;;;6.30;;
77012;SDS011;67260;53.130;17.982;2023-07-30T01:13:14;10.80;;;6.80;;
77012;SDS011;67260;53.130;17.982;2023-07-30T01:15:43;9.80;;;7.00;;
77012;SDS011;67260;53.130;17.982;2023-07-30T01:18:10;9.40;;;6.30;;
77012;SDS011;67260;53.130;17.982;2023-07-30T01:20:37;9.60;;;6.50;;
77012;SDS011;67260;53.130;17.982;2023-07-30T01:23:11;11.30;;;7.50;;
77012;SDS011;67260;53.130;17.982;2023-07-30T01:25:45;9.70;;;6.90;;
77012;SDS011;67260;53.130;17.982;2023-07-30T01:28:16;14.20;;;7.50;;
77012;SDS011;67260;53.130;17.982;2023-07-30T01:30:55;11.10;;;7.40;;
77012;SDS011;67260;53.130;17.982;2023-07-30T01:33:23;11.10;;;7.50;;
77012;SDS011;67260;53.130;17.982;2023-07-30T01:35:50;10.00;;;7.40;;
77012;SDS011;67260;53.130;17.982;2023-07-30T01:38:23;11.70;;;7.20;;
77012;SDS011;67260;53.130;17.982;2023-07-30T01:40:51;10.70;;;7.20;;
77012;SDS011;67260;53.130;17.982;2023-07-30T01:43:18;11.00;;;7.20;;
77012;SDS011;67260;53.130;17.982;2023-07-30T01:45:50;14.20;;;8.40;;
77012;SDS011;67260;53.130;17.982;2023-07-30T01:48:17;13.40;;;7.70;;
77012;SDS011;67260;53.130;17.982;2023-07-30T01:50:48;12.00;;;7.60;;
77012;SDS011;67260;53.130;17.982;2023-07-30T01:53:15;11.20;;;7.40;;
77012;SDS011;67260;53.130;17.982;2023-07-30T01:55:43;11.60;;;7.60;;
77012;SDS011;67260;53.130;17.982;2023-07-30T01:58:16;13.20;;;7.80;;
77012;SDS011;67260;53.130;17.982;2023-07-30T02:00:43;11.40;;;7.90;;
77012;SDS011;67260;53.130;17.982;2023-07-30T02:03:10;11.30;;;7.80;;
77012;SDS011;67260;53.130;17.982;2023-07-30T02:05:40;12.00;;;8.00;;
77012;SDS011;67260;53.130;17.982;2023-07-30T02:08:06;11.70;;;7.80;;
77012;SDS011;67260;53.130;17.982;2023-07-30T02:10:36;10.10;;;7.20;;
77012;SDS011;67260;53.130;17.982;2023-07-30T02:13:12;13.90;;;9.00;;
77012;SDS011;67260;53.130;17.982;2023-07-30T02:15:40;12.30;;;8.40;;
77012;SDS011;67260;53.130;17.982;2023-07-30T02:18:08;11.40;;;8.00;;
77012;SDS011;67260;53.130;17.982;2023-07-30T02:20:49;12.20;;;8.30;;
77012;SDS011;67260;53.130;17.982;2023-07-30T02:23:15;10.30;;;7.40;;
77012;SDS011;67260;53.130;17.982;2023-07-30T02:25:42;11.50;;;7.70;;
77012;SDS011;67260;53.130;17.982;2023-07-30T02:28:09;13.30;;;7.90;;
77012;SDS011;67260;53.130;17.982;2023-07-30T02:30:37;13.10;;;7.90;;
77012;SDS011;67260;53.130;17.982;2023-07-30T02:33:45;10.20;;;7.50;;
77012;SDS011;67260;53.130;17.982;2023-07-30T02:36:27;10.90;;;7.40;;
77012;SDS011;67260;53.130;17.982;2023-07-30T02:38:54;12.80;;;7.30;;
77012;SDS011;67260;53.130;17.982;2023-07-30T02:41:21;11.50;;;7.70;;
77012;SDS011;67260;53.130;17.982;2023-07-30T02:43:47;12.30;;;7.40;;
77012;SDS011;67260;53.130;17.982;2023-07-30T02:46:14;11.40;;;7.30;;
77012;SDS011;67260;53.130;17.982;2023-07-30T02:49:08;12.10;;;7.50;;
77012;SDS011;67260;53.130;17.982;2023-07-30T02:51:38;10.90;;;7.50;;
77012;SDS011;67260;53.130;17.982;2023-07-30T02:54:05;10.60;;;7.50;;
77012;SDS011;67260;53.130;17.982;2023-07-30T02:56:32;13.10;;;7.90;;
77012;SDS011;67260;53.130;17.982;2023-07-30T02:58:59;11.70;;;7.30;;
77012;SDS011;67260;53.130;17.982;2023-07-30T03:01:27;10.70;;;7.40;;
77012;SDS011;67260;53.130;17.982;2023-07-30T03:03:54;13.30;;;8.00;;
77012;SDS011;67260;53.130;17.982;2023-07-30T03:06:20;13.20;;;8.30;;
77012;SDS011;67260;53.130;17.982;2023-07-30T03:08:47;11.90;;;7.80;;
77012;SDS011;67260;53.130;17.982;2023-07-30T03:11:14;14.80;;;8.40;;
77012;SDS011;67260;53.130;17.982;2023-07-30T03:13:49;14.60;;;8.30;;
77012;SDS011;67260;53.130;17.982;2023-07-30T03:16:19;12.40;;;8.30;;
77012;SDS011;67260;53.130;17.982;2023-07-30T03:18:51;15.70;;;9.10;;
77012;SDS011;67260;53.130;17.982;2023-07-30T03:21:30;13.60;;;8.50;;
77012;SDS011;67260;53.130;17.982;2023-07-30T03:23:57;14.20;;;8.40;;
77012;SDS011;67260;53.130;17.982;2023-07-30T03:26:30;12.40;;;8.70;;
77012;SDS011;67260;53.130;17.982;2023-07-30T03:29:00;13.90;;;8.50;;
77012;SDS011;67260;53.130;17.982;2023-07-30T03:31:35;14.00;;;8.80;;
77012;SDS011;67260;53.130;17.982;2023-07-30T03:34:02;14.80;;;9.40;;
77012;SDS011;67260;53.130;17.982;2023-07-30T03:36:29;13.50;;;8.30;;
77012;SDS011;67260;53.130;17.982;2023-07-30T03:38:55;14.80;;;9.70;;
77012;SDS011;67260;53.130;17.982;2023-07-30T03:41:25;12.30;;;7.80;;
77012;SDS011;67260;53.130;17.982;2023-07-30T03:43:53;11.80;;;8.30;;
77012;SDS011;67260;53.130;17.982;2023-07-30T03:46:23;13.20;;;8.40;;
77012;SDS011;67260;53.130;17.982;2023-07-30T03:48:58;13.50;;;8.30;;
77012;SDS011;67260;53.130;17.982;2023-07-30T03:51:37;13.30;;;8.00;;
77012;SDS011;67260;53.130;17.982;2023-07-30T03:54:07;14.20;;;8.50;;
77012;SDS011;67260;53.130;17.982;2023-07-30T03:56:34;13.10;;;8.40;;
77012;SDS011;67260;53.130;17.982;2023-07-30T03:59:00;15.20;;;8.30;;
77012;SDS011;67260;53.130;17.982;2023-07-30T04:01:27;13.10;;;9.10;;
77012;SDS011;67260;53.130;17.982;2023-07-30T04:03:55;14.80;;;8.90;;
77012;SDS011;67260;53.130;17.982;2023-07-30T04:06:22;15.50;;;8.70;;
77012;SDS011;67260;53.130;17.982;2023-07-30T04:08:50;16.50;;;9.60;;
77012;SDS011;67260;53.130;17.982;2023-07-30T04:11:16;16.20;;;9.40;;
77012;SDS011;67260;53.130;17.982;2023-07-30T04:13:43;14.50;;;9.20;;
77012;SDS011;67260;53.130;17.982;2023-07-30T04:16:10;15.10;;;9.80;;
77012;SDS011;67260;53.130;17.982;2023-07-30T04:18:37;15.80;;;9.30;;
77012;SDS011;67260;53.130;17.982;2023-07-30T04:21:04;15.60;;;9.50;;
77012;SDS011;67260;53.130;17.982;2023-07-30T04:23:30;15.20;;;9.60;;
77012;SDS011;67260;53.130;17.982;2023-07-30T04:25:57;16.50;;;9.50;;
77012;SDS011;67260;53.130;17.982;2023-07-30T04:28:24;15.20;;;9.20;;
77012;SDS011;67260;53.130;17.982;2023-07-30T04:30:50;17.90;;;10.20;;
77012;SDS011;67260;53.130;17.982;2023-07-30T04:33:17;15.90;;;9.30;;
77012;SDS011;67260;53.130;17.982;2023-07-30T04:35:44;15.90;;;9.90;;
77012;SDS011;67260;53.130;17.982;2023-07-30T04:38:11;17.30;;;10.00;;
77012;SDS011;67260;53.130;17.982;2023-07-30T04:40:38;14.90;;;9.80;;
77012;SDS011;67260;53.130;17.982;2023-07-30T04:43:05;16.10;;;9.90;;
77012;SDS011;67260;53.130;17.982;2023-07-30T04:45:32;16.90;;;10.60;;
77012;SDS011;67260;53.130;17.982;2023-07-30T04:47:59;17.00;;;10.60;;
77012;SDS011;67260;53.130;17.982;2023-07-30T04:50:25;17.90;;;10.90;;
77012;SDS011;67260;53.130;17.982;2023-07-30T04:52:52;15.30;;;10.00;;
77012;SDS011;67260;53.130;17.982;2023-07-30T04:55:19;16.20;;;10.60;;
77012;SDS011;67260;53.130;17.982;2023-07-30T04:57:46;15.30;;;10.10;;
77012;SDS011;67260;53.130;17.982;2023-07-30T05:00:13;16.60;;;10.80;;
77012;SDS011;67260;53.130;17.982;2023-07-30T05:02:39;15.70;;;11.70;;
77012;SDS011;67260;53.130;17.982;2023-07-30T05:05:06;16.40;;;10.80;;
77012;SDS011;67260;53.130;17.982;2023-07-30T05:07:33;16.20;;;10.60;;
77012;SDS011;67260;53.130;17.982;2023-07-30T05:10:00;15.80;;;10.10;;
77012;SDS011;67260;53.130;17.982;2023-07-30T05:12:27;16.50;;;10.90;;
77012;SDS011;67260;53.130;17.982;2023-07-30T05:14:53;17.60;;;11.90;;
77012;SDS011;67260;53.130;17.982;2023-07-30T05:17:20;15.20;;;9.50;;
77012;SDS011;67260;53.130;17.982;2023-07-30T05:19:47;14.90;;;10.50;;
77012;SDS011;67260;53.130;17.982;2023-07-30T05:22:13;15.50;;;10.50;;
77012;SDS011;67260;53.130;17.982;2023-07-30T05:24:40;15.50;;;11.10;;
77012;SDS011;67260;53.130;17.982;2023-07-30T05:27:07;14.30;;;10.50;;
77012;SDS011;67260;53.130;17.982;2023-07-30T05:29:33;15.20;;;10.20;;
77012;SDS011;67260;53.130;17.982;2023-07-30T05:32:00;17.10;;;11.00;;
77012;SDS011;67260;53.130;17.982;2023-07-30T05:34:27;16.10;;;10.80;;
77012;SDS011;67260;53.130;17.982;2023-07-30T05:36:53;17.30;;;10.40;;
77012;SDS011;67260;53.130;17.982;2023-07-30T05:39:20;12.70;;;9.60;;
77012;SDS011;67260;53.130;17.982;2023-07-30T05:41:46;14.50;;;11.20;;
77012;SDS011;67260;53.130;17.982;2023-07-30T05:44:13;15.70;;;10.80;;
77012;SDS011;67260;53.130;17.982;2023-07-30T05:46:40;14.30;;;10.40;;
77012;SDS011;67260;53.130;17.982;2023-07-30T05:49:07;14.90;;;10.60;;
77012;SDS011;67260;53.130;17.982;2023-07-30T05:51:33;15.30;;;10.60;;
77012;SDS011;67260;53.130;17.982;2023-07-30T05:54:00;12.10;;;9.00;;
77012;SDS011;67260;53.130;17.982;2023-07-30T05:56:27;13.90;;;9.90;;
77012;SDS011;67260;53.130;17.982;2023-07-30T05:58:53;14.70;;;10.10;;
77012;SDS011;67260;53.130;17.982;2023-07-30T06:01:20;16.40;;;10.60;;
77012;SDS011;67260;53.130;17.982;2023-07-30T06:03:47;14.10;;;9.80;;
77012;SDS011;67260;53.130;17.982;2023-07-30T06:06:14;16.20;;;10.20;;
77012;SDS011;67260;53.130;17.982;2023-07-30T06:08:41;13.40;;;9.40;;
77012;SDS011;67260;53.130;17.982;2023-07-30T06:11:07;13.80;;;10.60;;
77012;SDS011;67260;53.130;17.982;2023-07-30T06:13:34;11.30;;;9.10;;
77012;SDS011;67260;53.130;17.982;2023-07-30T06:16:01;14.00;;;9.50;;
77012;SDS011;67260;53.130;17.982;2023-07-30T06:18:28;14.40;;;9.60;;
77012;SDS011;67260;53.130;17.982;2023-07-30T06:20:55;12.90;;;10.80;;
77012;SDS011;67260;53.130;17.982;2023-07-30T06:23:22;14.00;;;10.10;;
77012;SDS011;67260;53.130;17.982;2023-07-30T06:25:49;12.90;;;9.40;;
77012;SDS011;67260;53.130;17.982;2023-07-30T06:28:16;12.60;;;9.90;;
77012;SDS011;67260;53.130;17.982;2023-07-30T06:30:43;12.70;;;9.30;;
77012;SDS011;67260;53.130;17.982;2023-07-30T06:33:10;14.50;;;9.70;;
77012;SDS011;67260;53.130;17.982;2023-07-30T06:35:37;12.00;;;9.10;;
77012;SDS011;67260;53.130;17.982;2023-07-30T06:38:05;11.60;;;9.00;;
77012;SDS011;67260;53.130;17.982;2023-07-30T06:40:32;12.90;;;9.90;;
77012;SDS011;67260;53.130;17.982;2023-07-30T06:42:59;13.20;;;9.60;;
77012;SDS011;67260;53.130;17.982;2023-07-30T06:45:25;12.20;;;9.50;;
77012;SDS011;67260;53.130;17.982;2023-07-30T06:47:52;11.00;;;8.80;;
77012;SDS011;67260;53.130;17.982;2023-07-30T06:50:19;11.80;;;8.40;;
77012;SDS011;67260;53.130;17.982;2023-07-30T06:52:45;12.90;;;8.50;;
77012;SDS011;67260;53.130;17.982;2023-07-30T06:55:12;13.50;;;9.80;;
77012;SDS011;67260;53.130;17.982;2023-07-30T06:57:39;10.50;;;7.70;;
77012;SDS011;67260;53.130;17.982;2023-07-30T07:00:06;9.10;;;7.20;;
77012;SDS011;67260;53.130;17.982;2023-07-30T07:02:33;8.50;;;6.70;;
77012;SDS011;67260;53.130;17.982;2023-07-30T07:05:00;8.80;;;6.80;;
77012;SDS011;67260;53.130;17.982;2023-07-30T07:07:27;8.00;;;6.90;;
77012;SDS011;67260;53.130;17.982;2023-07-30T07:09:53;8.10;;;6.80;;
77012;SDS011;67260;53.130;17.982;2023-07-30T07:12:20;9.50;;;6.30;;
77012;SDS011;67260;53.130;17.982;2023-07-30T07:14:47;9.40;;;6.80;;
77012;SDS011;67260;53.130;17.982;2023-07-30T07:17:13;8.80;;;7.40;;
77012;SDS011;67260;53.130;17.982;2023-07-30T07:19:40;8.30;;;6.30;;
77012;SDS011;67260;53.130;17.982;2023-07-30T07:22:07;9.50;;;6.30;;
77012;SDS011;67260;53.130;17.982;2023-07-30T07:24:33;9.20;;;6.30;;
77012;SDS011;67260;53.130;17.982;2023-07-30T07:27:00;8.30;;;6.20;;
77012;SDS011;67260;53.130;17.982;2023-07-30T07:29:27;8.90;;;6.30;;
77012;SDS011;67260;53.130;17.982;2023-07-30T07:31:55;9.60;;;6.10;;
77012;SDS011;67260;53.130;17.982;2023-07-30T07:34:27;7.50;;;6.30;;
77012;SDS011;67260;53.130;17.982;2023-07-30T07:36:56;7.50;;;6.10;;
77012;SDS011;67260;53.130;17.982;2023-07-30T07:39:23;10.80;;;6.40;;
77012;SDS011;67260;53.130;17.982;2023-07-30T07:41:50;9.50;;;6.40;;
77012;SDS011;67260;53.130;17.982;2023-07-30T07:44:16;8.60;;;6.20;;
77012;SDS011;67260;53.130;17.982;2023-07-30T07:46:43;8.30;;;6.20;;
77012;SDS011;67260;53.130;17.982;2023-07-30T07:49:10;6.60;;;5.50;;
77012;SDS011;67260;53.130;17.982;2023-07-30T07:51:36;7.60;;;6.40;;
77012;SDS011;67260;53.130;17.982;2023-07-30T07:54:03;7.60;;;5.90;;
77012;SDS011;67260;53.130;17.982;2023-07-30T07:56:30;7.30;;;5.80;;
77012;SDS011;67260;53.130;17.982;2023-07-30T07:58:57;7.90;;;5.80;;
77012;SDS011;67260;53.130;17.982;2023-07-30T08:01:24;8.00;;;6.20;;
77012;SDS011;67260;53.130;17.982;2023-07-30T08:03:51;10.40;;;7.20;;
77012;SDS011;67260;53.130;17.982;2023-07-30T08:06:18;6.10;;;5.50;;
77012;SDS011;67260;53.130;17.982;2023-07-30T08:08:44;11.00;;;6.60;;
77012;SDS011;67260;53.130;17.982;2023-07-30T08:11:11;7.60;;;5.60;;
77012;SDS011;67260;53.130;17.982;2023-07-30T08:13:38;7.50;;;6.30;;
77012;SDS011;67260;53.130;17.982;2023-07-30T08:16:05;7.10;;;5.80;;
77012;SDS011;67260;53.130;17.982;2023-07-30T08:18:32;7.70;;;5.60;;
77012;SDS011;67260;53.130;17.982;2023-07-30T08:20:59;7.10;;;5.60;;
77012;SDS011;67260;53.130;17.982;2023-07-30T08:23:27;6.40;;;5.60;;
77012;SDS011;67260;53.130;17.982;2023-07-30T08:25:54;7.90;;;5.10;;
77012;SDS011;67260;53.130;17.982;2023-07-30T08:28:21;7.90;;;6.60;;
77012;SDS011;67260;53.130;17.982;2023-07-30T08:30:48;7.60;;;5.40;;
77012;SDS011;67260;53.130;17.982;2023-07-30T08:33:14;6.30;;;5.00;;
77012;SDS011;67260;53.130;17.982;2023-07-30T08:35:42;7.00;;;5.40;;
77012;SDS011;67260;53.130;17.982;2023-07-30T08:38:09;7.30;;;5.20;;
77012;SDS011;67260;53.130;17.982;2023-07-30T08:40:36;5.90;;;5.10;;
77012;SDS011;67260;53.130;17.982;2023-07-30T08:43:03;6.30;;;5.40;;
77012;SDS011;67260;53.130;17.982;2023-07-30T08:45:36;5.80;;;5.10;;
77012;SDS011;67260;53.130;17.982;2023-07-30T08:48:05;7.70;;;5.70;;
77012;SDS011;67260;53.130;17.982;2023-07-30T08:50:32;7.10;;;5.50;;
77012;SDS011;67260;53.130;17.982;2023-07-30T08:53:02;8.50;;;5.80;;
77012;SDS011;67260;53.130;17.982;2023-07-30T08:55:32;7.60;;;6.00;;
77012;SDS011;67260;53.130;17.982;2023-07-30T08:58:22;7.50;;;5.90;;
77012;SDS011;67260;53.130;17.982;2023-07-30T09:00:58;7.20;;;6.20;;
77012;SDS011;67260;53.130;17.982;2023-07-30T09:03:31;6.70;;;5.50;;
77012;SDS011;67260;53.130;17.982;2023-07-30T09:06:28;9.30;;;6.00;;
77012;SDS011;67260;53.130;17.982;2023-07-30T09:08:55;7.30;;;5.40;;
77012;SDS011;67260;53.130;17.982;2023-07-30T09:14:18;7.00;;;5.00;;
77012;SDS011;67260;53.130;17.982;2023-07-30T09:20:17;5.80;;;4.60;;
77012;SDS011;67260;53.130;17.982;2023-07-30T09:22:44;7.20;;;5.00;;
77012;SDS011;67260;53.130;17.982;2023-07-30T09:25:31;7.30;;;5.30;;
77012;SDS011;67260;53.130;17.982;2023-07-30T09:28:00;11.20;;;5.10;;
77012;SDS011;67260;53.130;17.982;2023-07-30T09:30:27;6.20;;;5.50;;
77012;SDS011;67260;53.130;17.982;2023-07-30T09:32:55;6.10;;;4.90;;
77012;SDS011;67260;53.130;17.982;2023-07-30T09:35:23;7.10;;;5.00;;
77012;SDS011;67260;53.130;17.982;2023-07-30T09:38:02;7.60;;;5.10;;
77012;SDS011;67260;53.130;17.982;2023-07-30T09:40:36;6.20;;;4.60;;
77012;SDS011;67260;53.130;17.982;2023-07-30T09:43:05;5.90;;;4.80;;
77012;SDS011;67260;53.130;17.982;2023-07-30T09:45:33;6.50;;;4.80;;
77012;SDS011;67260;53.130;17.982;2023-07-30T09:48:03;6.80;;;5.00;;
77012;SDS011;67260;53.130;17.982;2023-07-30T09:50:34;7.00;;;4.80;;
77012;SDS011;67260;53.130;17.982;2023-07-30T09:53:04;6.60;;;4.70;;
77012;SDS011;67260;53.130;17.982;2023-07-30T09:55:34;8.10;;;5.80;;
77012;SDS011;67260;53.130;17.982;2023-07-30T09:58:26;7.30;;;5.00;;
77012;SDS011;67260;53.130;17.982;2023-07-30T10:00:52;6.40;;;4.60;;
77012;SDS011;67260;53.130;17.982;2023-07-30T10:03:23;6.00;;;4.80;;
77012;SDS011;67260;53.130;17.982;2023-07-30T10:05:50;5.10;;;4.20;;
77012;SDS011;67260;53.130;17.982;2023-07-30T10:08:24;6.00;;;4.10;;
77012;SDS011;67260;53.130;17.982;2023-07-30T10:10:53;6.90;;;4.40;;
77012;SDS011;67260;53.130;17.982;2023-07-30T10:13:22;6.30;;;3.80;;
77012;SDS011;67260;53.130;17.982;2023-07-30T10:15:49;6.20;;;3.90;;
77012;SDS011;67260;53.130;17.982;2023-07-30T10:18:17;5.70;;;4.00;;
77012;SDS011;67260;53.130;17.982;2023-07-30T10:20:53;8.00;;;5.60;;
77012;SDS011;67260;53.130;17.982;2023-07-30T10:23:26;5.20;;;3.80;;
77012;SDS011;67260;53.130;17.982;2023-07-30T10:26:11;5.40;;;4.00;;
77012;SDS011;67260;53.130;17.982;2023-07-30T10:28:38;7.20;;;3.50;;
77012;SDS011;67260;53.130;17.982;2023-07-30T10:31:10;7.90;;;3.70;;
77012;SDS011;67260;53.130;17.982;2023-07-30T10:36:19;6.50;;;4.00;;
77012;SDS011;67260;53.130;17.982;2023-07-30T10:38:58;4.90;;;3.40;;
77012;SDS011;67260;53.130;17.982;2023-07-30T10:41:37;5.50;;;3.60;;
77012;SDS011;67260;53.130;17.982;2023-07-30T10:44:05;7.80;;;3.60;;
77012;SDS011;67260;53.130;17.982;2023-07-30T10:46:31;5.30;;;3.40;;
77012;SDS011;67260;53.130;17.982;2023-07-30T10:48:58;6.30;;;3.60;;
77012;SDS011;67260;53.130;17.982;2023-07-30T10:51:25;4.80;;;3.30;;
77012;SDS011;67260;53.130;17.982;2023-07-30T10:53:52;6.50;;;3.50;;
77012;SDS011;67260;53.130;17.982;2023-07-30T10:56:23;4.60;;;3.40;;
77012;SDS011;67260;53.130;17.982;2023-07-30T10:58:51;6.40;;;3.50;;
77012;SDS011;67260;53.130;17.982;2023-07-30T11:01:20;7.30;;;3.20;;
77012;SDS011;67260;53.130;17.982;2023-07-30T11:03:50;5.70;;;3.70;;
77012;SDS011;67260;53.130;17.982;2023-07-30T11:06:21;4.20;;;3.20;;
77012;SDS011;67260;53.130;17.982;2023-07-30T11:08:49;5.90;;;4.10;;
77012;SDS011;67260;53.130;17.982;2023-07-30T11:11:16;5.30;;;3.30;;
77012;SDS011;67260;53.130;17.982;2023-07-30T11:13:45;5.40;;;3.20;;
77012;SDS011;67260;53.130;17.982;2023-07-30T11:16:13;4.50;;;3.30;;
77012;SDS011;67260;53.130;17.982;2023-07-30T11:18:42;4.80;;;3.20;;
77012;SDS011;67260;53.130;17.982;2023-07-30T11:21:22;4.90;;;3.50;;
77012;SDS011;67260;53.130;17.982;2023-07-30T11:23:50;7.90;;;3.20;;
77012;SDS011;67260;53.130;17.982;2023-07-30T11:26:18;4.50;;;3.00;;
77012;SDS011;67260;53.130;17.982;2023-07-30T11:28:46;5.10;;;3.10;;
77012;SDS011;67260;53.130;17.982;2023-07-30T11:31:13;4.20;;;2.80;;
77012;SDS011;67260;53.130;17.982;2023-07-30T11:33:44;7.40;;;3.10;;
77012;SDS011;67260;53.130;17.982;2023-07-30T11:36:17;5.30;;;3.30;;
77012;SDS011;67260;53.130;17.982;2023-07-30T11:38:47;6.20;;;2.90;;
77012;SDS011;67260;53.130;17.982;2023-07-30T11:41:15;5.20;;;3.40;;
77012;SDS011;67260;53.130;17.982;2023-07-30T11:43:43;5.20;;;3.20;;
77012;SDS011;67260;53.130;17.982;2023-07-30T11:46:15;5.80;;;3.90;;
77012;SDS011;67260;53.130;17.982;2023-07-30T11:48:44;5.80;;;3.50;;
77012;SDS011;67260;53.130;17.982;2023-07-30T11:54:00;4.70;;;3.20;;
77012;SDS011;67260;53.130;17.982;2023-07-30T11:56:31;6.90;;;3.80;;
77012;SDS011;67260;53.130;17.982;2023-07-30T11:59:04;5.70;;;4.20;;
77012;SDS011;67260;53.130;17.982;2023-07-30T12:01:34;5.40;;;4.30;;
77012;SDS011;67260;53.130;17.982;2023-07-30T12:04:04;6.90;;;3.50;;
77012;SDS011;67260;53.130;17.982;2023-07-30T12:06:45;4.50;;;3.60;;
77012;SDS011;67260;53.130;17.982;2023-07-30T12:09:20;9.20;;;3.40;;
77012;SDS011;67260;53.130;17.982;2023-07-30T12:11:51;6.00;;;3.60;;
77012;SDS011;67260;53.130;17.982;2023-07-30T12:14:25;6.10;;;3.20;;
77012;SDS011;67260;53.130;17.982;2023-07-30T12:16:57;6.60;;;3.30;;
77012;SDS011;67260;53.130;17.982;2023-07-30T12:19:24;4.40;;;3.10;;
77012;SDS011;67260;53.130;17.982;2023-07-30T12:21:51;4.90;;;3.10;;
77012;SDS011;67260;53.130;17.982;2023-07-30T12:24:17;3.80;;;2.60;;
77012;SDS011;67260;53.130;17.982;2023-07-30T12:26:53;4.00;;;3.50;;
77012;SDS011;67260;53.130;17.982;2023-07-30T12:29:29;4.90;;;3.20;;
77012;SDS011;67260;53.130;17.982;2023-07-30T12:32:05;5.20;;;3.20;;
77012;SDS011;67260;53.130;17.982;2023-07-30T12:34:33;5.00;;;2.90;;
77012;SDS011;67260;53.130;17.982;2023-07-30T12:37:00;4.40;;;2.60;;
77012;SDS011;67260;53.130;17.982;2023-07-30T12:39:27;5.00;;;2.80;;
77012;SDS011;67260;53.130;17.982;2023-07-30T12:41:58;7.70;;;2.80;;
77012;SDS011;67260;53.130;17.982;2023-07-30T12:44:27;4.10;;;2.80;;
77012;SDS011;67260;53.130;17.982;2023-07-30T12:47:20;3.60;;;2.40;;
77012;SDS011;67260;53.130;17.982;2023-07-30T12:49:54;4.20;;;2.70;;
77012;SDS011;67260;53.130;17.982;2023-07-30T12:52:34;4.80;;;2.50;;
77012;SDS011;67260;53.130;17.982;2023-07-30T12:55:01;3.60;;;2.70;;
77012;SDS011;67260;53.130;17.982;2023-07-30T12:57:31;4.10;;;2.70;;
77012;SDS011;67260;53.130;17.982;2023-07-30T13:00:00;4.20;;;2.80;;
77012;SDS011;67260;53.130;17.982;2023-07-30T13:02:29;4.00;;;2.60;;
77012;SDS011;67260;53.130;17.982;2023-07-30T13:04:57;4.60;;;2.20;;
77012;SDS011;67260;53.130;17.982;2023-07-30T13:07:24;3.60;;;2.40;;
77012;SDS011;67260;53.130;17.982;2023-07-30T13:10:01;3.80;;;2.50;;
77012;SDS011;67260;53.130;17.982;2023-07-30T13:12:37;3.60;;;2.50;;
77012;SDS011;67260;53.130;17.982;2023-07-30T13:15:18;3.80;;;2.30;;
77012;SDS011;67260;53.130;17.982;2023-07-30T13:17:45;4.50;;;2.40;;
77012;SDS011;67260;53.130;17.982;2023-07-30T13:20:14;3.70;;;2.30;;
77012;SDS011;67260;53.130;17.982;2023-07-30T13:22:43;8.20;;;2.50;;
77012;SDS011;67260;53.130;17.982;2023-07-30T13:25:11;3.40;;;2.30;;
77012;SDS011;67260;53.130;17.982;2023-07-30T13:27:38;5.10;;;2.40;;
77012;SDS011;67260;53.130;17.982;2023-07-30T13:30:05;4.90;;;2.50;;
77012;SDS011;67260;53.130;17.982;2023-07-30T13:32:37;4.80;;;3.10;;
77012;SDS011;67260;53.130;17.982;2023-07-30T13:35:07;3.50;;;2.30;;
77012;SDS011;67260;53.130;17.982;2023-07-30T13:37:38;3.30;;;2.10;;
77012;SDS011;67260;53.130;17.982;2023-07-30T13:40:10;5.60;;;2.90;;
77012;SDS011;67260;53.130;17.982;2023-07-30T13:42:43;3.40;;;2.20;;
77012;SDS011;67260;53.130;17.982;2023-07-30T13:45:16;3.40;;;2.10;;
77012;SDS011;67260;53.130;17.982;2023-07-30T13:47:49;3.40;;;1.90;;
77012;SDS011;67260;53.130;17.982;2023-07-30T13:50:16;3.90;;;2.20;;
77012;SDS011;67260;53.130;17.982;2023-07-30T13:52:44;5.10;;;1.90;;
77012;SDS011;67260;53.130;17.982;2023-07-30T13:55:13;5.30;;;1.80;;
77012;SDS011;67260;53.130;17.982;2023-07-30T13:57:39;3.60;;;2.10;;
77012;SDS011;67260;53.130;17.982;2023-07-30T14:00:10;5.00;;;1.70;;
77012;SDS011;67260;53.130;17.982;2023-07-30T14:02:45;3.60;;;1.90;;
77012;SDS011;67260;53.130;17.982;2023-07-30T14:05:12;2.50;;;1.60;;
77012;SDS011;67260;53.130;17.982;2023-07-30T14:07:40;6.70;;;1.80;;
77012;SDS011;67260;53.130;17.982;2023-07-30T14:10:10;4.10;;;2.10;;
77012;SDS011;67260;53.130;17.982;2023-07-30T14:12:37;7.70;;;1.90;;
77012;SDS011;67260;53.130;17.982;2023-07-30T14:15:04;4.10;;;2.00;;
77012;SDS011;67260;53.130;17.982;2023-07-30T14:17:32;4.90;;;2.00;;
77012;SDS011;67260;53.130;17.982;2023-07-30T14:20:07;3.50;;;1.80;;
77012;SDS011;67260;53.130;17.982;2023-07-30T14:22:35;3.20;;;1.70;;
77012;SDS011;67260;53.130;17.982;2023-07-30T14:25:03;3.30;;;1.80;;
77012;SDS011;67260;53.130;17.982;2023-07-30T14:27:38;2.60;;;1.70;;
77012;SDS011;67260;53.130;17.982;2023-07-30T14:30:07;3.10;;;1.90;;
77012;SDS011;67260;53.130;17.982;2023-07-30T14:32:58;4.20;;;1.80;;
77012;SDS011;67260;53.130;17.982;2023-07-30T14:35:33;2.90;;;1.50;;
77012;SDS011;67260;53.130;17.982;2023-07-30T14:38:57;3.30;;;1.50;;
77012;SDS011;67260;53.130;17.982;2023-07-30T14:41:42;3.20;;;1.90;;
77012;SDS011;67260;53.130;17.982;2023-07-30T14:44:22;2.90;;;1.80;;
77012;SDS011;67260;53.130;17.982;2023-07-30T14:46:48;3.00;;;1.40;;
77012;SDS011;67260;53.130;17.982;2023-07-30T14:49:15;3.20;;;1.80;;
77012;SDS011;67260;53.130;17.982;2023-07-30T14:51:57;2.90;;;1.50;;
77012;SDS011;67260;53.130;17.982;2023-07-30T14:54:25;2.80;;;1.70;;